Time;durP1;ratioP1;P1;durP2;ratioP2;P2;SDS_P1;SDS_P2;PMS_P1;PMS_P2;Temp;Humidity;BMP_temperature;BMP_pressure;BME280_temperature;BME280_humidity;BME280_pressure;Samples;Min_cycle;Max_cycle;Signal;HPM_P1;HPM_P2
2023/09/15 00:00:47;;;;;;;3.12;1.30;;;19.50;53.80;;;;;;2382956;58;20977;-68
2023/09/15 00:03:13;;;;;;;2.40;1.00;;;19.60;54.00;;;;;;2393834;58;21505;-66
2023/09/15 00:05:46;;;;;;;2.62;1.10;;;19.50;53.90;;;;;;2393427;58;20988;-66
2023/09/15 00:08:18;;;;;;;2.25;1.10;;;19.50;54.00;;;;;;2393798;58;21715;-66
2023/09/15 00:10:46;;;;;;;2.53;1.10;;;19.40;53.90;;;;;;2182215;59;21097;-68
2023/09/15 00:13:12;;;;;;;3.08;1.30;;;19.40;53.90;;;;;;2394342;58;21052;-66
2023/09/15 00:15:41;;;;;;;3.35;1.30;;;19.40;54.00;;;;;;2394962;58;20981;-67
2023/09/15 00:18:07;;;;;;;2.45;1.00;;;19.30;54.00;;;;;;2394434;58;21082;-67
2023/09/15 00:20:34;;;;;;;2.37;1.00;;;19.30;54.20;;;;;;2182294;59;21019;-66
2023/09/15 00:23:02;;;;;;;2.67;1.30;;;19.30;54.20;;;;;;2393797;58;21106;-67
2023/09/15 00:25:29;;;;;;;2.53;1.20;;;19.30;54.20;;;;;;2181608;59;21404;-67
2023/09/15 00:27:57;;;;;;;2.22;1.00;;;19.20;54.20;;;;;;2394173;58;21081;-66
2023/09/15 00:30:25;;;;;;;2.33;1.10;;;19.20;54.20;;;;;;2182985;59;21070;-65
2023/09/15 00:32:52;;;;;;;2.55;1.02;;;19.10;54.20;;;;;;2182308;59;21028;-66
2023/09/15 00:35:21;;;;;;;2.75;1.20;;;19.10;54.20;;;;;;2393307;58;20997;-67
2023/09/15 00:37:47;;;;;;;2.80;1.00;;;19.10;54.30;;;;;;2394257;58;20965;-66
2023/09/15 00:40:15;;;;;;;2.70;1.20;;;19.00;54.90;;;;;;2382157;58;21061;-69
2023/09/15 00:42:46;;;;;;;2.95;1.05;;;19.00;54.30;;;;;;2377832;58;21033;-68
2023/09/15 00:45:14;;;;;;;2.67;1.00;;;19.00;54.30;;;;;;2375464;58;21020;-68
2023/09/15 00:47:46;;;;;;;3.45;0.98;;;18.90;54.20;;;;;;2384623;58;21026;-66
2023/09/15 00:50:16;;;;;;;2.65;1.30;;;18.90;54.30;;;;;;2391882;58;22052;-67
2023/09/15 00:52:45;;;;;;;1.85;0.90;;;18.90;54.30;;;;;;2181919;59;21876;-68
2023/09/15 00:55:12;;;;;;;1.98;0.90;;;18.80;54.30;;;;;;2182037;59;20981;-68
2023/09/15 00:57:41;;;;;;;2.28;0.90;;;18.80;54.30;;;;;;2182703;59;21041;-65
2023/09/15 01:00:13;;;;;;;2.80;1.33;;;18.80;54.30;;;;;;2393696;58;20970;-66
2023/09/15 01:02:41;;;;;;;2.85;1.20;;;18.70;54.30;;;;;;2182813;59;21052;-65
2023/09/15 01:05:10;;;;;;;2.58;1.00;;;18.70;54.40;;;;;;2181386;59;21879;-67
2023/09/15 01:07:37;;;;;;;3.40;1.10;;;18.60;54.40;;;;;;2394518;58;20977;-68
2023/09/15 01:10:07;;;;;;;2.80;1.25;;;18.60;54.40;;;;;;2181783;59;21060;-68
2023/09/15 01:12:34;;;;;;;2.47;1.08;;;18.60;54.40;;;;;;2182582;59;21466;-67
2023/09/15 01:15:01;;;;;;;1.77;0.80;;;18.60;54.50;;;;;;2394066;58;21838;-69
2023/09/15 01:17:32;;;;;;;2.25;1.00;;;18.50;54.40;;;;;;2394708;58;22099;-66
2023/09/15 01:20:11;;;;;;;3.15;1.30;;;18.50;54.40;;;;;;2181806;59;20990;-65
2023/09/15 01:23:02;;;;;;;2.50;1.10;;;18.50;55.00;;;;;;2182455;59;21022;-67
2023/09/15 01:25:51;;;;;;;4.03;1.40;;;18.40;54.70;;;;;;2182465;59;21509;-66
2023/09/15 01:29:51;;;;;;;2.80;1.20;;;18.40;54.90;;;;;;2394767;58;21089;-66
2023/09/15 01:32:18;;;;;;;2.50;1.10;;;18.40;55.10;;;;;;2394661;58;21104;-67
2023/09/15 01:34:50;;;;;;;3.47;1.20;;;18.30;54.70;;;;;;2394878;58;21009;-66
2023/09/15 01:37:17;;;;;;;2.15;0.93;;;18.30;54.80;;;;;;2393713;58;21822;-66
2023/09/15 01:39:43;;;;;;;2.60;1.00;;;18.30;54.60;;;;;;2394353;58;21026;-66
2023/09/15 01:42:10;;;;;;;2.65;1.15;;;18.20;54.60;;;;;;2394083;58;21050;-68
2023/09/15 01:44:36;;;;;;;2.80;1.10;;;18.20;54.80;;;;;;2182682;59;21506;-67
2023/09/15 01:47:02;;;;;;;3.12;1.20;;;18.20;54.80;;;;;;2393534;58;21733;-66
2023/09/15 01:49:29;;;;;;;2.50;1.10;;;18.20;54.90;;;;;;2394943;58;21014;-67
2023/09/15 01:51:56;;;;;;;2.80;1.25;;;18.10;54.90;;;;;;2394086;58;21424;-65
2023/09/15 01:54:22;;;;;;;3.17;1.20;;;18.10;55.10;;;;;;2183605;59;20985;-66
2023/09/15 01:56:51;;;;;;;2.78;1.08;;;18.10;55.20;;;;;;2394855;58;21471;-66
2023/09/15 01:59:17;;;;;;;2.75;1.20;;;18.10;55.10;;;;;;2394318;58;21701;-66
2023/09/15 02:01:44;;;;;;;2.47;1.05;;;18.10;55.00;;;;;;2395815;58;20977;-67
2023/09/15 02:04:10;;;;;;;3.70;1.27;;;18.10;54.90;;;;;;2181775;59;20993;-68
2023/09/15 02:06:39;;;;;;;3.80;1.10;;;18.00;54.80;;;;;;2394143;58;20969;-67
2023/09/15 02:09:06;;;;;;;2.20;1.00;;;18.00;54.80;;;;;;2394428;58;21013;-68
2023/09/15 02:11:34;;;;;;;4.68;1.70;;;17.90;54.70;;;;;;2182833;59;20963;-68
2023/09/15 02:14:02;;;;;;;2.65;1.27;;;17.90;55.00;;;;;;2182049;59;21057;-66
2023/09/15 02:16:29;;;;;;;2.30;1.02;;;17.90;55.10;;;;;;2394991;58;21492;-66
2023/09/15 02:18:55;;;;;;;2.95;1.10;;;17.80;55.10;;;;;;2394000;58;21052;-66
2023/09/15 02:21:21;;;;;;;2.40;1.10;;;17.80;55.10;;;;;;2394527;58;20977;-66
2023/09/15 02:23:48;;;;;;;2.37;1.10;;;17.80;55.10;;;;;;2395198;58;20946;-67
2023/09/15 02:26:15;;;;;;;2.25;1.15;;;17.80;55.20;;;;;;2182262;59;20977;-66
2023/09/15 02:28:41;;;;;;;3.12;1.00;;;17.80;55.30;;;;;;2395122;58;21879;-67
2023/09/15 02:31:08;;;;;;;2.30;1.00;;;17.70;55.10;;;;;;2181997;59;20989;-69
2023/09/15 02:33:37;;;;;;;2.33;0.98;;;17.70;55.10;;;;;;2395299;58;21455;-68
2023/09/15 02:36:04;;;;;;;2.83;1.10;;;17.70;55.00;;;;;;2393780;58;21049;-65
2023/09/15 02:38:30;;;;;;;2.28;1.08;;;17.70;55.00;;;;;;2168135;59;21027;-66
2023/09/15 02:40:57;;;;;;;2.60;1.10;;;17.70;55.00;;;;;;2387600;58;21054;-67
2023/09/15 02:43:23;;;;;;;2.90;1.10;;;17.60;55.00;;;;;;2181761;59;21457;-68
2023/09/15 02:45:51;;;;;;;2.58;1.10;;;17.60;55.00;;;;;;2389552;58;20994;-65
2023/09/15 02:48:17;;;;;;;2.60;1.00;;;17.60;55.00;;;;;;2161451;59;21001;-69
2023/09/15 02:50:45;;;;;;;2.67;1.05;;;17.50;54.90;;;;;;2395071;58;21797;-65
2023/09/15 02:53:11;;;;;;;1.75;0.80;;;17.50;55.00;;;;;;2181805;59;21796;-65
2023/09/15 02:55:37;;;;;;;2.55;1.00;;;17.50;55.00;;;;;;2167959;59;21048;-66
2023/09/15 02:58:05;;;;;;;3.00;1.10;;;17.40;54.90;;;;;;2388427;58;20985;-65
2023/09/15 03:00:31;;;;;;;2.60;1.25;;;17.40;55.00;;;;;;2182693;59;20970;-66
2023/09/15 03:02:57;;;;;;;3.62;1.20;;;17.40;55.10;;;;;;2150017;59;21002;-66
2023/09/15 03:05:24;;;;;;;5.30;1.52;;;17.40;55.20;;;;;;2364998;58;21082;-66
2023/09/15 03:07:51;;;;;;;2.42;1.10;;;17.30;55.10;;;;;;2155254;59;21642;-67
2023/09/15 03:10:17;;;;;;;4.28;1.00;;;17.30;55.20;;;;;;2155869;59;21008;-67
2023/09/15 03:12:44;;;;;;;3.42;1.30;;;17.30;55.20;;;;;;2132153;59;20954;-65
2023/09/15 03:15:11;;;;;;;2.58;1.10;;;17.30;55.20;;;;;;2361444;58;21539;-66
2023/09/15 03:17:38;;;;;;;2.60;1.27;;;17.20;55.20;;;;;;2366279;58;21395;-67
2023/09/15 03:20:13;;;;;;;2.87;1.10;;;17.20;55.20;;;;;;2144444;59;21037;-65
2023/09/15 03:22:42;;;;;;;3.00;0.90;;;17.20;55.20;;;;;;2352109;58;20983;-67
2023/09/15 03:25:09;;;;;;;2.97;0.95;;;17.20;55.10;;;;;;2342383;58;21023;-67
2023/09/15 03:27:35;;;;;;;2.47;1.00;;;17.20;55.10;;;;;;2360147;58;21020;-67
2023/09/15 03:30:04;;;;;;;2.35;1.15;;;17.20;55.20;;;;;;2350322;58;20976;-67
2023/09/15 03:32:30;;;;;;;2.45;1.02;;;17.10;55.20;;;;;;2389887;58;20971;-68
2023/09/15 03:34:57;;;;;;;2.78;1.02;;;17.10;55.20;;;;;;2177414;58;21919;-67
2023/09/15 03:37:24;;;;;;;3.30;1.27;;;17.00;55.00;;;;;;2380698;58;21016;-66
2023/09/15 03:39:50;;;;;;;3.28;1.40;;;17.00;55.10;;;;;;2394788;58;21050;-68
2023/09/15 03:42:17;;;;;;;3.78;1.20;;;17.00;55.20;;;;;;2178528;58;21041;-66
2023/09/15 03:44:43;;;;;;;2.40;1.05;;;17.00;55.40;;;;;;2378723;58;21051;-69
2023/09/15 03:47:09;;;;;;;2.70;1.10;;;16.90;55.30;;;;;;2394408;58;21393;-69
2023/09/15 03:49:36;;;;;;;2.97;1.40;;;16.90;55.90;;;;;;2372131;58;20975;-68
2023/09/15 03:52:02;;;;;;;2.30;0.93;;;16.90;55.40;;;;;;2157617;58;21109;-67
2023/09/15 03:54:28;;;;;;;2.58;1.08;;;16.90;55.50;;;;;;2365546;58;21034;-66
2023/09/15 03:56:55;;;;;;;2.53;1.10;;;16.90;55.50;;;;;;2365540;58;20994;-68
2023/09/15 03:59:21;;;;;;;3.00;1.17;;;16.90;55.40;;;;;;2159102;59;21002;-67
2023/09/15 04:01:48;;;;;;;3.40;1.30;;;16.80;55.40;;;;;;2365436;58;20978;-67
2023/09/15 04:04:14;;;;;;;3.83;1.40;;;16.80;55.50;;;;;;2158124;59;20967;-68
2023/09/15 04:06:41;;;;;;;2.80;1.30;;;16.80;55.70;;;;;;2366498;58;20971;-67
2023/09/15 04:09:10;;;;;;;4.05;1.27;;;16.80;55.70;;;;;;2158847;59;21489;-67
2023/09/15 04:11:40;;;;;;;2.87;1.40;;;16.80;55.80;;;;;;2161358;59;21045;-68
2023/09/15 04:14:07;;;;;;;3.37;1.20;;;16.80;55.80;;;;;;2360551;58;21052;-68
2023/09/15 04:16:35;;;;;;;2.70;1.00;;;16.70;55.70;;;;;;2178245;58;20959;-66
2023/09/15 04:19:02;;;;;;;4.43;1.27;;;16.70;55.70;;;;;;2394917;58;20939;-67
2023/09/15 04:21:29;;;;;;;3.33;1.42;;;16.70;55.70;;;;;;2183689;58;20963;-68
2023/09/15 04:23:57;;;;;;;3.47;1.20;;;16.70;55.70;;;;;;2183053;59;21478;-67
2023/09/15 04:26:24;;;;;;;2.87;1.10;;;16.70;55.70;;;;;;2395624;58;21095;-66
2023/09/15 04:28:51;;;;;;;4.07;1.17;;;16.70;55.70;;;;;;2395702;58;20947;-67
2023/09/15 04:31:17;;;;;;;2.62;1.17;;;16.70;55.60;;;;;;2394963;58;21063;-66
2023/09/15 04:33:44;;;;;;;3.25;1.10;;;16.60;55.60;;;;;;2395860;58;20947;-66
2023/09/15 04:36:10;;;;;;;2.40;1.00;;;16.60;55.70;;;;;;2395039;58;21032;-69
2023/09/15 04:38:37;;;;;;;2.58;1.17;;;16.60;55.70;;;;;;2366560;58;21042;-68
2023/09/15 04:41:04;;;;;;;3.35;1.27;;;16.60;55.70;;;;;;2365848;58;20970;-66
2023/09/15 04:43:32;;;;;;;3.05;1.20;;;16.60;55.70;;;;;;2365789;58;21078;-68
2023/09/15 04:45:58;;;;;;;3.92;1.30;;;16.60;55.80;;;;;;2349092;58;20977;-65
2023/09/15 04:48:24;;;;;;;3.10;1.40;;;16.50;55.80;;;;;;2364283;58;21024;-65
2023/09/15 04:50:52;;;;;;;3.83;1.52;;;16.60;55.90;;;;;;2158992;59;20983;-68
2023/09/15 04:53:20;;;;;;;4.15;1.50;;;16.50;55.90;;;;;;2361202;58;20968;-66
2023/09/15 04:55:49;;;;;;;3.50;1.60;;;16.50;56.00;;;;;;2156377;59;20976;-66
2023/09/15 04:58:16;;;;;;;2.80;1.35;;;16.50;56.00;;;;;;2365339;58;21056;-66
2023/09/15 05:00:42;;;;;;;4.53;1.25;;;16.50;56.00;;;;;;2152452;59;20975;-66
2023/09/15 05:03:12;;;;;;;3.22;1.50;;;16.30;55.80;;;;;;2158822;59;21853;-66
2023/09/15 05:05:38;;;;;;;3.97;1.25;;;16.50;56.00;;;;;;2389663;58;21047;-66
2023/09/15 05:08:05;;;;;;;3.35;1.42;;;16.50;56.00;;;;;;2395100;58;21043;-67
2023/09/15 05:10:34;;;;;;;3.03;1.30;;;16.50;56.00;;;;;;2182819;58;20991;-66
2023/09/15 05:13:05;;;;;;;4.22;1.48;;;16.40;55.90;;;;;;2395436;58;20940;-68
2023/09/15 05:15:31;;;;;;;4.12;1.55;;;16.40;55.90;;;;;;2182824;59;20995;-67
2023/09/15 05:17:57;;;;;;;3.40;1.42;;;16.50;56.00;;;;;;2182660;58;20971;-67
2023/09/15 05:20:24;;;;;;;2.80;1.27;;;16.40;56.00;;;;;;2182520;58;20968;-66
2023/09/15 05:22:52;;;;;;;2.95;1.55;;;16.40;56.00;;;;;;2185463;59;21003;-67
2023/09/15 05:25:19;;;;;;;3.40;1.65;;;16.40;56.10;;;;;;2365384;58;21003;-66
2023/09/15 05:27:45;;;;;;;3.00;1.50;;;16.40;56.20;;;;;;2377845;58;21011;-65
2023/09/15 05:30:12;;;;;;;4.53;1.60;;;16.40;56.30;;;;;;2182967;59;20942;-65
2023/09/15 05:32:43;;;;;;;3.72;1.30;;;16.30;56.20;;;;;;2394603;58;21431;-66
2023/09/15 05:35:11;;;;;;;3.35;1.50;;;16.40;56.50;;;;;;2394656;58;21022;-66
2023/09/15 05:37:37;;;;;;;3.55;1.37;;;16.40;56.40;;;;;;2395565;58;20995;-66
2023/09/15 05:40:04;;;;;;;3.62;1.75;;;16.40;56.30;;;;;;2395410;58;20996;-66
2023/09/15 05:42:31;;;;;;;3.50;1.42;;;16.40;56.30;;;;;;2182706;59;21011;-66
2023/09/15 05:44:59;;;;;;;3.45;1.60;;;16.30;56.30;;;;;;2182598;59;21023;-66
2023/09/15 05:47:25;;;;;;;3.28;1.25;;;16.30;56.40;;;;;;2394499;58;20959;-65
2023/09/15 05:49:51;;;;;;;3.45;1.55;;;16.40;56.70;;;;;;2182355;59;20991;-67
2023/09/15 05:52:18;;;;;;;2.87;1.20;;;16.30;56.60;;;;;;2393937;58;20967;-66
2023/09/15 05:54:44;;;;;;;2.78;1.25;;;16.40;56.70;;;;;;2182657;59;21027;-66
2023/09/15 05:57:10;;;;;;;2.60;1.15;;;16.30;56.60;;;;;;2393571;58;21075;-67
2023/09/15 05:59:37;;;;;;;3.15;1.30;;;16.30;56.60;;;;;;2395105;58;21032;-66
2023/09/15 06:02:03;;;;;;;3.00;1.35;;;16.40;56.70;;;;;;2381163;58;21053;-66
2023/09/15 06:04:30;;;;;;;3.90;1.58;;;16.40;56.80;;;;;;2386104;58;20987;-71
2023/09/15 06:06:56;;;;;;;5.70;1.92;;;16.40;56.80;;;;;;2183225;58;21449;-66
2023/09/15 06:09:23;;;;;;;3.42;1.67;;;16.40;56.90;;;;;;2183886;58;21035;-70
2023/09/15 06:11:50;;;;;;;2.50;1.30;;;16.40;57.00;;;;;;2395540;58;20920;-69
2023/09/15 06:14:16;;;;;;;3.47;1.52;;;16.40;57.10;;;;;;2366439;58;20981;-67
2023/09/15 06:16:43;;;;;;;3.60;1.45;;;16.40;57.20;;;;;;2158930;58;20963;-68
2023/09/15 06:19:09;;;;;;;3.10;1.52;;;16.50;57.30;;;;;;2366799;58;21135;-70
2023/09/15 06:21:38;;;;;;;3.15;1.45;;;16.50;57.30;;;;;;2366917;58;21018;-68
2023/09/15 06:24:04;;;;;;;3.97;1.58;;;16.50;57.40;;;;;;2366945;58;20986;-68
2023/09/15 06:26:32;;;;;;;3.80;1.62;;;16.50;57.50;;;;;;2159557;60;20963;-68
2023/09/15 06:28:58;;;;;;;3.83;1.65;;;16.50;57.50;;;;;;2366678;58;21039;-68
2023/09/15 06:31:25;;;;;;;3.92;1.67;;;16.60;57.70;;;;;;2366020;58;20975;-68
2023/09/15 06:33:52;;;;;;;3.33;1.60;;;16.60;57.80;;;;;;2158869;60;21006;-69
2023/09/15 06:36:18;;;;;;;3.10;1.60;;;16.60;57.80;;;;;;2365366;58;20991;-67
2023/09/15 06:38:44;;;;;;;3.75;1.60;;;16.70;57.90;;;;;;2366556;58;20959;-69
2023/09/15 06:41:11;;;;;;;4.82;2.05;;;16.70;58.00;;;;;;2364296;58;21097;-69
2023/09/15 06:43:37;;;;;;;4.12;1.50;;;16.80;58.10;;;;;;2158208;60;21444;-67
2023/09/15 06:46:05;;;;;;;4.55;1.87;;;16.80;58.10;;;;;;2158634;60;20959;-68
2023/09/15 06:48:31;;;;;;;4.03;1.60;;;16.80;58.20;;;;;;2365994;58;21027;-69
2023/09/15 06:50:57;;;;;;;3.30;1.50;;;16.90;58.30;;;;;;2158196;60;20994;-69
2023/09/15 06:53:24;;;;;;;4.95;1.55;;;16.90;58.40;;;;;;2365681;58;20967;-68
2023/09/15 06:55:54;;;;;;;4.65;1.90;;;17.00;58.50;;;;;;2158672;59;21489;-69
2023/09/15 06:58:23;;;;;;;3.05;1.50;;;17.00;58.60;;;;;;2181863;59;21546;-67
2023/09/15 07:00:50;;;;;;;3.12;1.40;;;17.10;58.70;;;;;;2394598;58;20997;-70
2023/09/15 07:03:20;;;;;;;2.97;1.50;;;17.20;58.70;;;;;;2182238;59;20985;-69
2023/09/15 07:05:46;;;;;;;3.33;1.48;;;17.20;58.70;;;;;;2395201;58;21037;-69
2023/09/15 07:08:13;;;;;;;5.07;1.60;;;17.30;58.80;;;;;;2182944;59;20972;-69
2023/09/15 07:10:39;;;;;;;4.70;1.50;;;17.30;58.80;;;;;;2394224;58;20989;-69
2023/09/15 07:13:05;;;;;;;2.80;1.45;;;17.30;58.80;;;;;;2394279;58;21026;-70
2023/09/15 07:15:35;;;;;;;3.33;1.70;;;17.40;58.80;;;;;;2182006;59;21017;-70
2023/09/15 07:18:04;;;;;;;3.35;1.70;;;17.50;58.90;;;;;;2182396;59;21057;-70
2023/09/15 07:20:30;;;;;;;4.55;1.75;;;17.60;59.10;;;;;;2183208;59;21069;-68
2023/09/15 07:22:57;;;;;;;2.92;1.58;;;17.60;59.00;;;;;;2183313;59;20989;-70
2023/09/15 07:25:24;;;;;;;3.22;1.60;;;17.70;59.10;;;;;;2182864;59;21014;-68
2023/09/15 07:27:50;;;;;;;4.82;1.90;;;17.70;59.00;;;;;;2183347;59;21464;-69
2023/09/15 07:30:17;;;;;;;3.40;1.62;;;17.80;59.10;;;;;;2180806;59;21035;-66
2023/09/15 07:32:43;;;;;;;3.53;1.45;;;17.80;59.00;;;;;;2183259;59;21067;-68
2023/09/15 07:35:10;;;;;;;3.10;1.35;;;17.90;59.10;;;;;;2384250;58;21003;-68
2023/09/15 07:37:37;;;;;;;2.80;1.50;;;18.00;59.20;;;;;;2150253;59;21144;-69
2023/09/15 07:40:07;;;;;;;4.20;1.87;;;18.00;59.20;;;;;;2183395;59;20997;-69
2023/09/15 07:42:33;;;;;;;3.95;1.92;;;18.00;59.30;;;;;;2185508;59;21005;-69
2023/09/15 07:45:00;;;;;;;4.55;1.48;;;18.10;59.40;;;;;;2183438;59;21282;-68
2023/09/15 07:47:26;;;;;;;5.85;1.90;;;18.20;59.40;;;;;;2183989;59;21001;-70
2023/09/15 07:49:53;;;;;;;4.43;1.75;;;18.20;59.30;;;;;;2183389;59;21013;-70
2023/09/15 07:52:22;;;;;;;3.90;1.67;;;18.30;59.40;;;;;;2182367;59;21085;-68
2023/09/15 07:54:48;;;;;;;3.62;1.55;;;18.40;59.50;;;;;;2184636;59;21033;-66
2023/09/15 07:57:17;;;;;;;4.62;1.80;;;18.40;59.40;;;;;;2394712;58;21826;-67
2023/09/15 07:59:43;;;;;;;4.20;1.98;;;18.50;59.50;;;;;;2394527;58;20978;-66
2023/09/15 08:02:10;;;;;;;6.22;2.15;;;18.60;59.50;;;;;;2394808;58;21410;-66
2023/09/15 08:04:36;;;;;;;3.12;1.60;;;18.60;59.60;;;;;;2394505;58;20986;-66
2023/09/15 08:07:05;;;;;;;3.83;2.03;;;18.70;59.80;;;;;;2394547;58;21950;-66
2023/09/15 08:09:31;;;;;;;5.37;2.03;;;18.70;59.60;;;;;;2183226;59;21608;-68
2023/09/15 08:12:01;;;;;;;3.47;1.70;;;18.80;59.60;;;;;;2344159;58;21012;-66
2023/09/15 08:14:27;;;;;;;3.17;1.70;;;18.90;59.70;;;;;;2154786;59;21076;-67
2023/09/15 08:16:57;;;;;;;6.00;1.95;;;18.90;59.70;;;;;;2366085;58;20980;-68
2023/09/15 08:19:23;;;;;;;4.22;2.35;;;19.10;60.00;;;;;;2157749;59;21035;-67
2023/09/15 08:21:50;;;;;;;3.90;1.92;;;19.10;59.80;;;;;;2354669;58;21020;-67
2023/09/15 08:24:20;;;;;;;4.40;2.20;;;19.20;59.80;;;;;;2142686;60;20973;-67
2023/09/15 08:26:46;;;;;;;5.82;1.90;;;19.30;59.90;;;;;;2152517;59;21004;-66
2023/09/15 08:29:13;;;;;;;5.75;2.65;;;19.30;59.90;;;;;;2366118;58;21450;-67
2023/09/15 08:31:42;;;;;;;5.87;2.30;;;19.40;60.00;;;;;;2158759;59;20932;-66
2023/09/15 08:34:12;;;;;;;3.78;2.10;;;19.50;60.20;;;;;;2154504;59;20975;-71
2023/09/15 08:36:38;;;;;;;5.18;2.75;;;19.60;60.10;;;;;;2365369;58;20995;-68
2023/09/15 08:39:04;;;;;;;5.50;2.35;;;19.60;60.10;;;;;;2366235;58;21036;-67
2023/09/15 08:41:54;;;;;;;5.10;2.37;;;19.70;60.10;;;;;;2360361;58;20956;-66
2023/09/15 08:44:20;;;;;;;3.75;1.70;;;19.80;60.20;;;;;;2154209;59;21003;-67
2023/09/15 08:46:48;;;;;;;3.35;1.70;;;19.90;60.10;;;;;;2158915;59;21083;-66
2023/09/15 08:49:15;;;;;;;7.03;2.20;;;20.00;60.20;;;;;;2352390;58;21049;-68
2023/09/15 08:51:51;;;;;;;4.00;2.20;;;20.10;60.30;;;;;;2154803;59;20987;-67
2023/09/15 08:54:18;;;;;;;4.28;1.77;;;20.20;60.70;;;;;;2158856;59;20992;-67
2023/09/15 08:56:44;;;;;;;3.42;1.70;;;20.30;60.40;;;;;;2365763;58;21035;-66
2023/09/15 08:59:13;;;;;;;5.60;2.15;;;20.30;60.30;;;;;;2365297;58;21571;-66
2023/09/15 09:01:40;;;;;;;3.67;1.90;;;20.50;60.50;;;;;;2366283;58;21051;-68
2023/09/15 09:04:07;;;;;;;4.37;1.77;;;20.50;60.40;;;;;;2154716;59;21033;-67
2023/09/15 09:06:34;;;;;;;3.40;1.87;;;20.60;60.30;;;;;;2158963;59;21087;-68
2023/09/15 09:09:04;;;;;;;4.68;1.75;;;20.70;60.10;;;;;;2132663;59;21078;-67
2023/09/15 09:11:31;;;;;;;3.67;1.85;;;20.80;60.10;;;;;;2360530;58;21032;-67
2023/09/15 09:13:58;;;;;;;3.60;1.85;;;20.90;60.10;;;;;;2361275;58;20951;-68
2023/09/15 09:16:24;;;;;;;5.10;2.10;;;21.00;60.00;;;;;;2146210;60;21022;-66
2023/09/15 09:18:57;;;;;;;3.33;1.52;;;21.00;59.90;;;;;;2336857;58;21100;-67
2023/09/15 09:21:25;;;;;;;4.47;1.90;;;21.10;59.90;;;;;;2361696;58;20977;-67
2023/09/15 09:23:51;;;;;;;4.45;1.80;;;21.20;59.90;;;;;;2385554;58;20961;-67
2023/09/15 09:26:17;;;;;;;3.70;1.75;;;21.30;59.90;;;;;;2395239;58;20993;-66
2023/09/15 09:28:45;;;;;;;4.78;1.92;;;21.40;59.80;;;;;;2378451;58;21495;-66
2023/09/15 09:31:11;;;;;;;3.90;1.92;;;21.50;59.70;;;;;;2381775;58;20982;-67
2023/09/15 09:33:38;;;;;;;5.65;2.10;;;21.50;59.70;;;;;;2182373;59;20985;-65
2023/09/15 09:36:13;;;;;;;3.80;1.95;;;21.60;59.60;;;;;;2182772;59;21470;-68
2023/09/15 09:38:43;;;;;;;3.92;1.90;;;21.70;59.80;;;;;;2179190;59;21003;-69
2023/09/15 09:41:10;;;;;;;7.65;2.10;;;21.80;59.70;;;;;;2374853;58;21450;-68
2023/09/15 09:43:40;;;;;;;4.03;1.98;;;21.90;59.70;;;;;;2394881;58;21000;-66
2023/09/15 09:46:06;;;;;;;3.33;1.80;;;21.90;59.40;;;;;;2182426;59;21005;-66
2023/09/15 09:48:36;;;;;;;5.25;1.98;;;22.00;59.30;;;;;;2394694;58;21025;-67
2023/09/15 09:51:03;;;;;;;3.55;1.85;;;22.10;59.40;;;;;;2182142;59;21018;-67
2023/09/15 09:53:32;;;;;;;3.95;1.52;;;22.20;59.40;;;;;;2181446;59;21348;-66
2023/09/15 09:56:01;;;;;;;2.97;1.60;;;22.20;59.20;;;;;;2394474;58;20981;-68
2023/09/15 09:58:28;;;;;;;4.20;2.17;;;22.30;59.20;;;;;;2182543;59;21081;-66
2023/09/15 10:00:56;;;;;;;5.12;1.90;;;22.40;59.10;;;;;;2180243;59;21133;-67
2023/09/15 10:03:23;;;;;;;4.45;1.90;;;22.50;59.10;;;;;;2183145;59;21021;-66
2023/09/15 10:05:52;;;;;;;3.12;1.77;;;22.50;59.00;;;;;;2181468;59;21392;-66
2023/09/15 10:08:18;;;;;;;3.40;1.80;;;22.60;59.00;;;;;;2182428;59;20982;-69
2023/09/15 10:10:46;;;;;;;2.92;1.50;;;22.70;59.00;;;;;;2182158;59;21027;-67
2023/09/15 10:13:16;;;;;;;3.75;1.80;;;22.70;58.80;;;;;;2182245;59;20972;-66
2023/09/15 10:15:42;;;;;;;5.25;1.70;;;22.80;58.90;;;;;;2182269;59;21041;-67
2023/09/15 10:18:13;;;;;;;4.25;1.80;;;22.90;58.80;;;;;;2388632;58;21118;-68
2023/09/15 10:20:41;;;;;;;3.87;1.98;;;23.00;58.80;;;;;;2165431;59;21670;-66
2023/09/15 10:23:07;;;;;;;4.53;1.90;;;23.10;58.80;;;;;;2154603;59;21024;-68
2023/09/15 10:25:44;;;;;;;5.93;1.83;;;23.10;58.70;;;;;;2153518;60;20988;-66
2023/09/15 10:28:12;;;;;;;4.45;2.08;;;23.20;58.50;;;;;;2140010;59;21051;-66
2023/09/15 10:30:45;;;;;;;3.40;1.73;;;23.30;58.60;;;;;;2143151;59;20979;-67
2023/09/15 10:33:12;;;;;;;3.87;1.92;;;23.40;58.60;;;;;;2137120;59;21496;-65
2023/09/15 10:35:43;;;;;;;4.75;2.00;;;23.40;58.50;;;;;;2349394;58;21787;-68
2023/09/15 10:38:10;;;;;;;3.87;1.87;;;23.50;58.40;;;;;;2349498;58;21090;-67
2023/09/15 10:40:46;;;;;;;3.22;1.80;;;23.50;58.20;;;;;;2344428;58;21762;-66
2023/09/15 10:43:17;;;;;;;3.10;1.70;;;23.70;58.20;;;;;;2370317;58;21012;-67
2023/09/15 10:45:57;;;;;;;4.65;1.77;;;23.70;58.20;;;;;;2343749;58;21062;-67
2023/09/15 10:48:46;;;;;;;3.70;1.75;;;23.80;58.10;;;;;;2355328;58;20924;-67
2023/09/15 10:51:22;;;;;;;4.68;2.08;;;23.90;58.00;;;;;;2157716;59;21727;-67
2023/09/15 10:53:56;;;;;;;3.78;1.80;;;23.90;58.20;;;;;;2360136;58;21974;-66
2023/09/15 10:56:22;;;;;;;4.65;1.98;;;24.00;58.10;;;;;;2329227;59;20969;-67
2023/09/15 10:58:52;;;;;;;3.50;1.95;;;24.10;58.00;;;;;;2141410;59;21674;-66
2023/09/15 11:01:21;;;;;;;3.17;1.55;;;24.20;58.00;;;;;;2366325;58;21749;-69
2023/09/15 11:03:47;;;;;;;3.67;1.75;;;24.20;57.90;;;;;;2349796;58;21015;-65
2023/09/15 11:06:14;;;;;;;3.00;1.70;;;24.30;57.80;;;;;;2328691;58;20982;-67
2023/09/15 11:08:41;;;;;;;3.10;1.67;;;24.30;57.60;;;;;;2155103;59;21116;-67
2023/09/15 11:11:09;;;;;;;3.72;1.90;;;24.40;57.60;;;;;;2157408;59;21375;-67
2023/09/15 11:13:41;;;;;;;3.67;1.87;;;24.50;57.60;;;;;;2158891;59;21829;-66
2023/09/15 11:16:08;;;;;;;5.45;2.03;;;24.50;57.60;;;;;;2156778;59;20992;-68
2023/09/15 11:18:35;;;;;;;3.17;1.75;;;24.60;57.50;;;;;;2155203;59;20999;-67
2023/09/15 11:21:02;;;;;;;4.97;1.90;;;24.70;57.40;;;;;;2365635;58;21096;-67
2023/09/15 11:23:28;;;;;;;5.03;2.00;;;24.70;57.30;;;;;;2158672;59;20991;-68
2023/09/15 11:26:05;;;;;;;3.05;1.70;;;24.80;57.30;;;;;;2365594;58;21058;-66
2023/09/15 11:28:37;;;;;;;3.90;2.07;;;24.80;57.30;;;;;;2159367;59;21451;-67
2023/09/15 11:31:06;;;;;;;4.18;1.90;;;24.90;57.30;;;;;;2363968;58;21049;-67
2023/09/15 11:33:34;;;;;;;5.25;2.10;;;25.00;57.10;;;;;;2362557;58;21056;-67
2023/09/15 11:36:01;;;;;;;5.93;2.65;;;25.00;56.90;;;;;;2157994;59;22148;-67
2023/09/15 11:38:27;;;;;;;4.12;1.98;;;25.10;56.90;;;;;;2364130;58;21039;-66
2023/09/15 11:40:54;;;;;;;3.30;1.92;;;25.10;56.80;;;;;;2352062;58;21064;-66
2023/09/15 11:43:23;;;;;;;4.68;2.12;;;25.20;56.80;;;;;;2349042;58;20968;-67
2023/09/15 11:45:51;;;;;;;4.47;2.05;;;25.20;56.70;;;;;;2153376;59;21634;-69
2023/09/15 11:48:17;;;;;;;3.78;2.00;;;25.30;56.60;;;;;;2360526;58;21594;-67
2023/09/15 11:50:44;;;;;;;3.70;1.90;;;25.40;56.60;;;;;;2360291;58;21596;-67
2023/09/15 11:53:10;;;;;;;4.72;2.40;;;25.50;56.60;;;;;;2158037;59;21508;-68
2023/09/15 11:55:39;;;;;;;3.87;1.92;;;25.50;56.30;;;;;;2340072;58;21301;-69
2023/09/15 11:58:06;;;;;;;4.18;2.25;;;25.60;56.40;;;;;;2119689;60;21072;-69
2023/09/15 12:00:33;;;;;;;4.15;2.22;;;25.60;56.20;;;;;;2142672;59;21607;-67
2023/09/15 12:02:59;;;;;;;8.30;2.37;;;25.70;56.00;;;;;;2365240;58;21474;-67
2023/09/15 12:05:28;;;;;;;4.22;2.00;;;25.70;55.90;;;;;;2158323;59;20975;-67
2023/09/15 12:08:00;;;;;;;3.90;2.10;;;25.70;55.90;;;;;;2366298;58;21072;-69
2023/09/15 12:10:26;;;;;;;3.95;1.95;;;25.80;55.90;;;;;;2365692;58;21611;-67
2023/09/15 12:12:57;;;;;;;4.12;2.17;;;25.80;55.80;;;;;;2158024;59;21441;-68
2023/09/15 12:15:23;;;;;;;3.60;1.75;;;25.90;55.50;;;;;;2159469;59;20976;-68
2023/09/15 12:17:50;;;;;;;5.72;2.08;;;25.90;56.20;;;;;;2159245;59;21200;-68
2023/09/15 12:20:16;;;;;;;4.50;2.30;;;26.00;55.70;;;;;;2389066;58;20955;-69
2023/09/15 12:22:45;;;;;;;4.80;2.30;;;26.00;55.70;;;;;;2183598;59;20939;-68
2023/09/15 12:25:15;;;;;;;4.80;2.45;;;26.10;55.50;;;;;;2393691;58;21011;-68
2023/09/15 12:27:41;;;;;;;3.85;2.33;;;26.10;55.10;;;;;;2182967;59;20951;-68
2023/09/15 12:30:07;;;;;;;3.75;2.17;;;26.20;55.20;;;;;;2390984;58;21019;-68
2023/09/15 12:32:34;;;;;;;6.37;2.30;;;26.20;55.10;;;;;;2190263;58;1278474;-68
2023/09/15 12:35:05;;;;;;;4.47;2.05;;;26.30;55.00;;;;;;2394968;58;20939;-67
2023/09/15 12:37:34;;;;;;;5.00;2.30;;;26.30;55.10;;;;;;2183013;58;21456;-68
2023/09/15 12:40:02;;;;;;;4.35;1.98;;;26.30;55.20;;;;;;2168270;59;21042;-68
2023/09/15 12:42:28;;;;;;;3.87;2.40;;;26.40;55.20;;;;;;2391263;58;21119;-68
2023/09/15 12:44:54;;;;;;;4.20;2.30;;;26.40;55.00;;;;;;2182752;58;21019;-68
2023/09/15 12:47:20;;;;;;;4.25;2.30;;;26.50;55.00;;;;;;2183252;58;20967;-69
2023/09/15 12:49:47;;;;;;;3.47;1.87;;;26.50;54.90;;;;;;2395065;58;21015;-68
2023/09/15 12:52:16;;;;;;;4.43;2.35;;;26.50;54.80;;;;;;2394171;58;21865;-68